Decoded Metar for KEKX (ELIZABETH in KY, USA) (IATA:EKX) | Meteo·Mobile Aviation Weather
aviador You're here:

KEKX Decoded Metar

ELIZABETH in KY, USA
Report Time2018-09-20 04:35:00
UTC Time2018-09-20 04:32:59
Flight Rules vfr VFR
WindCalm
Visibility9999 m
Phenomena:N/A
Clouds:N/A
CeilingNone
Temp22°C (ISA +8)
Dew Point22°C (100% RH)
QNH1017 hPa
Density Alt1,962 ft
Elevation755 ft
Report Wrong Elevation
Raw Report
METAR KEKX 200435Z AUTO 00000KT 10SM CLR 22/22 A3003 RMK AO2
T02210217=

Extra information for KEKX:More info

Airport Information Weather charts Add Link Nearby Venues Social comments

AIRNAV info for KEKX